Time;durP1;ratioP1;P1;durP2;ratioP2;P2;SDS_P1;SDS_P2;PMS_P1;PMS_P2;Temp;Humidity;BMP_temperature;BMP_pressure;BME280_temperature;BME280_humidity;BME280_pressure;Samples;Min_cycle;Max_cycle;Signal;HPM_P1;HPM_P2
2022/11/03 00:01:54;;;;;;;;;;;;;;;21.06;58.67;101661.91;5063033;28;3037;-58
2022/11/03 00:04:20;;;;;;;;;;;;;;;21.05;58.99;101672.69;5065627;28;2785;-57
2022/11/03 00:06:47;;;;;;;;;;;;;;;21.06;58.87;101667.66;5063796;28;2658;-58
2022/11/03 00:09:14;;;;;;;;;;;;;;;21.04;59.29;101658.91;5062684;28;2765;-56
2022/11/03 00:11:41;;;;;;;;;;;;;;;21.02;59.93;101661.66;5073741;28;3094;-57
2022/11/03 00:14:10;;;;;;;;;;;;;;;21.04;59.79;101658.91;5067972;28;2812;-57
2022/11/03 00:16:36;;;;;;;;;;;;;;;21.01;59.47;101657.31;5070241;28;2870;-58
2022/11/03 00:19:02;;;;;;;;;;;;;;;21.01;59.42;101655.16;5067133;28;2801;-57
2022/11/03 00:21:29;;;;;;;;;;;;;;;21.04;59.64;101647.38;5069458;28;3109;-57
2022/11/03 00:23:55;;;;;;;;;;;;;;;20.98;59.49;101653.56;5056148;28;3099;-57
2022/11/03 00:26:21;;;;;;;;;;;;;;;20.97;59.85;101652.06;5072332;28;2969;-57
2022/11/03 00:28:49;;;;;;;;;;;;;;;20.98;59.69;101652.78;5068002;28;2906;-58
2022/11/03 00:31:19;;;;;;;;;;;;;;;21.00;59.61;101650.03;5067987;28;2793;-57
2022/11/03 00:33:45;;;;;;;;;;;;;;;20.99;59.56;101645.66;5062563;28;3093;-58
2022/11/03 00:36:12;;;;;;;;;;;;;;;20.97;59.41;101631.16;5066957;28;2897;-57
2022/11/03 00:38:38;;;;;;;;;;;;;;;20.99;59.53;101628.41;5067732;28;3105;-57
2022/11/03 00:41:05;;;;;;;;;;;;;;;20.98;59.39;101624.00;5072431;28;2925;-57
2022/11/03 00:43:31;;;;;;;;;;;;;;;20.95;59.61;101633.91;5066868;28;2943;-57
2022/11/03 00:45:58;;;;;;;;;;;;;;;20.95;59.34;101625.28;5056765;28;2847;-57
2022/11/03 00:48:31;;;;;;;;;;;;;;;20.96;59.49;101621.00;5067958;28;3344;-58
2022/11/03 00:51:10;;;;;;;;;;;;;;;20.97;59.40;101614.63;5070154;28;2969;-57
2022/11/03 00:53:37;;;;;;;;;;;;;;;20.96;59.53;101621.00;5063480;28;3232;-58
2022/11/03 00:56:03;;;;;;;;;;;;;;;20.93;59.71;101615.13;5064784;28;3273;-58
2022/11/03 00:58:29;;;;;;;;;;;;;;;20.93;59.80;101617.28;5064701;28;2832;-57
2022/11/03 01:01:03;;;;;;;;;;;;;;;20.90;59.65;101615.66;5060266;28;3301;-58
2022/11/03 01:03:30;;;;;;;;;;;;;;;20.93;59.39;101611.50;5070400;28;2697;-58
2022/11/03 01:08:41;;;;;;;;;;;;;;;20.91;59.46;101615.03;5061076;28;2942;-58
2022/11/03 01:13:53;;;;;;;;;;;;;;;20.91;59.38;101615.03;5063318;28;2941;-58
2022/11/03 01:16:19;;;;;;;;;;;;;;;20.93;59.24;101623.03;5072365;28;3020;-57
2022/11/03 01:18:45;;;;;;;;;;;;;;;20.91;59.60;101612.16;5063062;28;2774;-57
2022/11/03 01:21:12;;;;;;;;;;;;;;;20.90;59.75;101613.53;5057408;28;3201;-57
2022/11/03 01:23:38;;;;;;;;;;;;;;;20.88;59.55;101619.19;5068469;28;3034;-56
2022/11/03 01:26:05;;;;;;;;;;;;;;;20.90;59.40;101616.41;5069970;28;2844;-57
2022/11/03 01:28:34;;;;;;;;;;;;;;;20.88;59.77;101619.19;5068802;28;3006;-57
2022/11/03 01:31:02;;;;;;;;;;;;;;;20.89;59.59;101617.81;5064122;28;2797;-56
2022/11/03 01:33:28;;;;;;;;;;;;;;;20.88;59.79;101621.31;5065005;28;2880;-57
2022/11/03 01:35:55;;;;;;;;;;;;;;;20.90;59.29;101604.91;5065373;28;2903;-57
2022/11/03 01:38:21;;;;;;;;;;;;;;;20.89;59.35;101609.16;5068642;28;2933;-57
2022/11/03 01:40:47;;;;;;;;;;;;;;;20.86;59.48;101604.66;5066145;28;3187;-57
2022/11/03 01:43:15;;;;;;;;;;;;;;;20.89;59.33;101599.75;5069464;28;3863;-55
2022/11/03 01:45:41;;;;;;;;;;;;;;;20.89;59.45;101597.66;5068681;28;2797;-57
2022/11/03 01:48:07;;;;;;;;;;;;;;;20.92;59.25;101592.75;5066845;28;2590;-57
2022/11/03 01:50:34;;;;;;;;;;;;;;;20.89;59.63;101594.78;5073069;28;2843;-57
2022/11/03 01:53:00;;;;;;;;;;;;;;;20.88;59.45;101590.38;5072591;28;2871;-57
2022/11/03 01:55:27;;;;;;;;;;;;;;;20.85;59.68;101591.66;5073617;28;2785;-57
2022/11/03 01:57:54;;;;;;;;;;;;;;;20.84;59.57;101581.50;5067071;28;3060;-57
2022/11/03 02:00:21;;;;;;;;;;;;;;;20.82;59.50;101572.03;5065971;28;2823;-57
2022/11/03 02:02:47;;;;;;;;;;;;;;;20.85;59.52;101573.66;5060717;28;2756;-57
2022/11/03 02:05:16;;;;;;;;;;;;;;;20.84;59.51;101570.00;5050894;28;3014;-57
2022/11/03 02:07:47;;;;;;;;;;;;;;;20.84;59.72;101578.63;5051287;28;2602;-56
2022/11/03 02:10:13;;;;;;;;;;;;;;;20.82;59.65;101581.44;5059243;28;2818;-57
2022/11/03 02:12:39;;;;;;;;;;;;;;;20.81;59.92;101579.91;5052417;28;2693;-57
2022/11/03 02:15:09;;;;;;;;;;;;;;;20.82;59.63;101575.66;5053001;28;2745;-57
2022/11/03 02:17:36;;;;;;;;;;;;;;;20.83;59.77;101576.41;5061144;28;2775;-56
2022/11/03 02:20:06;;;;;;;;;;;;;;;20.86;59.61;101573.00;5059236;28;3167;-57
2022/11/03 02:22:48;;;;;;;;;;;;;;;20.85;59.44;101580.16;5057610;28;2897;-58
2022/11/03 02:25:17;;;;;;;;;;;;;;;20.85;59.44;101577.28;5057112;28;2991;-57
2022/11/03 02:27:43;;;;;;;;;;;;;;;20.86;59.35;101581.63;5055090;28;3232;-58
2022/11/03 02:30:09;;;;;;;;;;;;;;;20.86;59.43;101578.75;5059089;28;3058;-58
2022/11/03 02:33:02;;;;;;;;;;;;;;;20.85;59.44;101574.38;5058983;28;3080;-57
2022/11/03 02:35:30;;;;;;;;;;;;;;;20.85;59.39;101571.50;5051441;28;3070;-58
2022/11/03 02:37:57;;;;;;;;;;;;;;;20.83;59.55;101571.41;5060182;28;2839;-59
2022/11/03 02:40:30;;;;;;;;;;;;;;;20.84;59.46;101564.25;5057805;28;2823;-59
2022/11/03 02:42:57;;;;;;;;;;;;;;;20.83;59.43;101567.78;5063397;28;2763;-58
2022/11/03 02:45:23;;;;;;;;;;;;;;;20.82;59.63;101564.16;5053599;28;2809;-57
2022/11/03 02:47:50;;;;;;;;;;;;;;;20.82;59.54;101555.53;5063799;28;2814;-58
2022/11/03 02:50:16;;;;;;;;;;;;;;;20.85;59.26;101551.38;5059520;28;2914;-58
2022/11/03 02:52:43;;;;;;;;;;;;;;;20.82;59.57;101558.41;5065196;28;2752;-58
2022/11/03 02:55:33;;;;;;;;;;;;;;;20.81;59.42;101554.00;5061465;28;3110;-57
2022/11/03 02:58:13;;;;;;;;;;;;;;;20.83;59.23;101539.72;5044336;28;2960;-58
2022/11/03 03:00:51;;;;;;;;;;;;;;;20.81;59.49;101533.84;5063630;28;2676;-58
2022/11/03 03:03:23;;;;;;;;;;;;;;;20.81;59.38;101542.50;5061935;28;3103;-58
2022/11/03 03:05:49;;;;;;;;;;;;;;;20.81;59.56;101538.88;5060716;28;2780;-58
2022/11/03 03:08:15;;;;;;;;;;;;;;;20.79;59.81;101536.63;5062371;28;2944;-58
2022/11/03 03:10:42;;;;;;;;;;;;;;;20.81;59.41;101544.63;5061408;28;2964;-58
2022/11/03 03:13:09;;;;;;;;;;;;;;;20.81;59.72;101533.84;5066618;28;2764;-58
2022/11/03 03:15:45;;;;;;;;;;;;;;;20.81;59.38;101536.75;5059728;28;2853;-58
2022/11/03 03:18:14;;;;;;;;;;;;;;;20.82;59.20;101526.72;5062239;28;2903;-58
2022/11/03 03:20:45;;;;;;;;;;;;;;;20.78;59.55;101532.25;5058355;28;3002;-58
2022/11/03 03:23:13;;;;;;;;;;;;;;;20.75;59.90;101524.88;5065382;28;2955;-58
2022/11/03 03:25:41;;;;;;;;;;;;;;;20.77;59.83;101533.63;5062577;28;3206;-57
2022/11/03 03:28:12;;;;;;;;;;;;;;;20.77;59.65;101530.00;5065386;28;2761;-57
2022/11/03 03:30:38;;;;;;;;;;;;;;;20.79;59.65;101527.25;5063726;28;3050;-58
2022/11/03 03:33:04;;;;;;;;;;;;;;;20.79;59.69;101524.38;5064966;28;2731;-58
2022/11/03 03:35:31;;;;;;;;;;;;;;;20.79;59.63;101525.09;5061043;28;2949;-58
2022/11/03 03:38:03;;;;;;;;;;;;;;;20.80;59.50;101520.09;5060379;28;3140;-58
2022/11/03 03:40:31;;;;;;;;;;;;;;;20.82;59.71;101511.56;5067155;28;3278;-58
2022/11/03 03:42:57;;;;;;;;;;;;;;;20.84;59.74;101509.53;5065442;28;2941;-58
2022/11/03 03:45:24;;;;;;;;;;;;;;;20.87;59.44;101516.19;5061954;28;2548;-58
2022/11/03 03:47:50;;;;;;;;;;;;;;;20.87;59.56;101514.06;5061701;28;2895;-58
2022/11/03 03:50:22;;;;;;;;;;;;;;;20.89;59.80;101504.75;5061181;28;2835;-58
2022/11/03 03:52:49;;;;;;;;;;;;;;;20.89;59.93;101502.66;5063317;28;2657;-58
2022/11/03 03:55:16;;;;;;;;;;;;;;;20.90;59.85;101509.88;5060397;28;2883;-57
2022/11/03 03:57:42;;;;;;;;;;;;;;;20.91;60.34;101508.53;5060433;28;2871;-58
2022/11/03 04:00:11;;;;;;;;;;;;;;;20.91;60.23;101496.25;5058377;28;2645;-58
2022/11/03 04:02:38;;;;;;;;;;;;;;;20.92;59.85;101509.25;5057713;28;2946;-58
2022/11/03 04:05:04;;;;;;;;;;;;;;;20.93;60.08;101505.72;5066133;28;2820;-58
2022/11/03 04:07:46;;;;;;;;;;;;;;;20.93;60.24;101513.63;5058826;28;2918;-58
2022/11/03 04:10:12;;;;;;;;;;;;;;;20.93;60.28;101511.50;5062450;28;2831;-58
2022/11/03 04:22:15;;;;;;;;;;;;;;;20.95;60.10;101501.47;5063496;28;2888;-58
2022/11/03 04:24:01;;;;;;;;;;;;;;;20.99;60.12;101495.94;5061153;28;2454;-58
2022/11/03 04:26:27;;;;;;;;;;;;;;;21.00;60.28;101503.19;5059963;28;2835;-58
2022/11/03 04:28:53;;;;;;;;;;;;;;;20.99;60.11;101495.94;5062797;28;2967;-58
2022/11/03 04:31:20;;;;;;;;;;;;;;;20.98;60.22;101495.19;5064570;28;2814;-58
2022/11/03 04:33:46;;;;;;;;;;;;;;;20.99;60.19;101488.06;5058296;28;3381;-58
2022/11/03 04:36:19;;;;;;;;;;;;;;;20.98;59.89;101477.16;5059183;28;3092;-58
2022/11/03 04:38:46;;;;;;;;;;;;;;;21.01;59.96;101484.53;5055497;28;2974;-58
2022/11/03 04:41:16;;;;;;;;;;;;;;;20.99;60.34;101478.66;5061325;28;2783;-58
2022/11/03 04:43:43;;;;;;;;;;;;;;;21.01;59.91;101467.25;5063170;28;2962;-58
2022/11/03 04:46:10;;;;;;;;;;;;;;;21.03;60.08;101471.00;5064733;28;2824;-58
2022/11/03 04:48:36;;;;;;;;;;;;;;;21.05;59.91;101470.34;5061314;28;2917;-58
2022/11/03 04:51:09;;;;;;;;;;;;;;;21.04;59.92;101469.59;5058149;28;2792;-58
2022/11/03 04:53:35;;;;;;;;;;;;;;;21.06;59.67;101463.22;5064295;28;2902;-58
2022/11/03 04:56:07;;;;;;;;;;;;;;;21.07;60.10;101467.56;5061564;28;2558;-58
2022/11/03 04:58:34;;;;;;;;;;;;;;;21.05;60.37;101458.81;5065197;28;2900;-58
2022/11/03 05:01:00;;;;;;;;;;;;;;;21.03;60.37;101461.63;5056194;28;2862;-58
2022/11/03 05:03:33;;;;;;;;;;;;;;;21.05;60.03;101464.56;5048838;28;3329;-58
2022/11/03 05:06:18;;;;;;;;;;;;;;;21.05;60.28;101453.84;5056234;28;3136;-58
2022/11/03 05:08:47;;;;;;;;;;;;;;;21.06;60.13;101454.56;5060772;28;2772;-58
2022/11/03 05:11:15;;;;;;;;;;;;;;;21.07;59.97;101441.66;5054141;28;3037;-58
2022/11/03 05:13:42;;;;;;;;;;;;;;;21.06;60.11;101443.06;5051501;28;2837;-58
2022/11/03 05:16:08;;;;;;;;;;;;;;;21.05;60.22;101430.78;5059037;28;3147;-58
2022/11/03 05:18:35;;;;;;;;;;;;;;;21.08;60.15;101423.00;5061794;28;2914;-58
2022/11/03 05:21:02;;;;;;;;;;;;;;;21.08;59.96;101431.66;5059263;28;2836;-58
2022/11/03 05:23:30;;;;;;;;;;;;;;;21.09;60.25;101424.47;5059188;28;3016;-58
2022/11/03 05:25:56;;;;;;;;;;;;;;;21.08;60.03;101414.38;5061380;28;2852;-58
2022/11/03 05:28:29;;;;;;;;;;;;;;;21.09;60.35;101419.47;5051131;28;2857;-58
2022/11/03 05:30:56;;;;;;;;;;;;;;;21.08;60.15;101405.72;5058688;28;3265;-58
2022/11/03 05:33:27;;;;;;;;;;;;;;;21.10;60.34;101402.97;5059547;28;2697;-58
2022/11/03 05:35:54;;;;;;;;;;;;;;;21.11;60.05;101413.06;5058508;28;3246;-58
2022/11/03 05:38:21;;;;;;;;;;;;;;;21.11;59.94;101410.19;5062335;28;2759;-58
2022/11/03 05:40:51;;;;;;;;;;;;;;;21.11;60.07;101404.44;5062373;28;2751;-58
2022/11/03 05:43:17;;;;;;;;;;;;;;;21.11;60.18;101413.81;5059196;28;3106;-58
2022/11/03 05:45:44;;;;;;;;;;;;;;;21.12;60.11;101412.44;5061780;28;3300;-57
2022/11/03 05:48:12;;;;;;;;;;;;;;;21.13;60.31;101404.53;5060384;28;3323;-58
2022/11/03 05:50:38;;;;;;;;;;;;;;;21.13;60.39;101419.69;5062460;28;3217;-58
2022/11/03 05:53:11;;;;;;;;;;;;;;;21.14;60.13;101423.31;5047801;28;3489;-58
2022/11/03 05:55:37;;;;;;;;;;;;;;;21.15;60.37;101421.94;5058872;28;3059;-58
2022/11/03 05:58:04;;;;;;;;;;;;;;;21.13;60.17;101418.94;5061385;28;3347;-58
2022/11/03 06:00:31;;;;;;;;;;;;;;;21.13;60.36;101421.81;5058558;28;3682;-57
2022/11/03 06:02:57;;;;;;;;;;;;;;;21.13;60.56;101424.69;5049438;28;3229;-59
2022/11/03 06:05:24;;;;;;;;;;;;;;;21.12;60.69;101423.22;5053303;28;3577;-58
2022/11/03 06:07:54;;;;;;;;;;;;;;;21.12;60.25;101423.97;5059180;28;3170;-58
2022/11/03 06:10:30;;;;;;;;;;;;;;;21.12;60.65;101418.19;5054745;28;3222;-57
2022/11/03 06:13:03;;;;;;;;;;;;;;;21.15;60.51;101421.94;5059442;28;3210;-58
2022/11/03 06:15:31;;;;;;;;;;;;;;;21.16;60.42;101423.41;5058905;28;3295;-61
2022/11/03 06:17:57;;;;;;;;;;;;;;;20.47;55.93;101426.19;5042539;28;3412;-61
2022/11/03 06:20:24;;;;;;;;;;;;;;;21.06;59.20;101425.78;5049586;28;3835;-65
2022/11/03 06:22:51;;;;;;;;;;;;;;;21.60;57.61;101427.13;5050938;28;3037;-66
2022/11/03 06:25:28;;;;;;;;;;;;;;;21.87;57.84;101419.78;5057937;28;2866;-67
2022/11/03 06:27:56;;;;;;;;;;;;;;;21.88;58.31;101427.06;5042862;28;3253;-66
2022/11/03 06:30:27;;;;;;;;;;;;;;;21.96;58.05;101424.56;5064624;28;2732;-68
2022/11/03 06:32:53;;;;;;;;;;;;;;;21.95;58.57;101418.03;5052508;28;3229;-70
2022/11/03 06:35:20;;;;;;;;;;;;;;;22.05;58.48;101423.56;5048975;28;4260;-70
2022/11/03 06:37:46;;;;;;;;;;;;;;;22.14;58.11;101416.78;5059926;28;3062;-68
2022/11/03 06:40:12;;;;;;;;;;;;;;;22.20;57.64;101418.50;5067705;28;2250;-70
2022/11/03 06:42:39;;;;;;;;;;;;;;;22.24;57.32;101412.91;5063579;28;3011;-69
2022/11/03 06:45:11;;;;;;;;;;;;;;;22.27;57.06;101411.63;5064213;28;2918;-70
2022/11/03 06:47:37;;;;;;;;;;;;;;;22.32;57.35;101405.41;5057779;28;3010;-68
2022/11/03 06:50:06;;;;;;;;;;;;;;;22.32;56.87;101408.28;5063827;28;2850;-68
2022/11/03 06:52:32;;;;;;;;;;;;;;;22.36;56.48;101405.59;5058694;28;3391;-68
2022/11/03 06:55:11;;;;;;;;;;;;;;;22.41;56.93;101406.53;5055952;28;2775;-69
2022/11/03 06:57:43;;;;;;;;;;;;;;;22.40;56.85;101407.91;5058798;28;2992;-69
2022/11/03 07:00:21;;;;;;;;;;;;;;;22.35;56.55;101400.47;5058274;28;3023;-69
2022/11/03 07:03:13;;;;;;;;;;;;;;;22.36;56.23;101399.06;5055474;28;3051;-67
2022/11/03 07:05:40;;;;;;;;;;;;;;;22.38;56.30;101404.94;5064837;28;2990;-66
2022/11/03 07:08:18;;;;;;;;;;;;;;;22.39;56.20;101397.78;5061333;28;2467;-68
2022/11/03 07:10:45;;;;;;;;;;;;;;;22.37;56.20;101398.41;5059611;28;2935;-66
2022/11/03 07:13:15;;;;;;;;;;;;;;;22.35;56.15;101401.19;5057739;28;2962;-65
2022/11/03 07:15:41;;;;;;;;;;;;;;;22.35;55.78;101401.19;5059309;28;3113;-66
2022/11/03 07:18:21;;;;;;;;;;;;;;;22.32;55.77;101396.00;5056174;28;2883;-65
2022/11/03 07:20:48;;;;;;;;;;;;;;;22.34;56.17;101393.22;5055373;28;2929;-67
2022/11/03 07:23:16;;;;;;;;;;;;;;;22.40;55.50;101402.13;5062048;28;2999;-66
2022/11/03 07:25:42;;;;;;;;;;;;;;;22.36;55.63;101396.19;5061497;28;2347;-66
2022/11/03 07:28:09;;;;;;;;;;;;;;;22.39;55.78;101397.78;5061671;28;2612;-66
2022/11/03 07:30:35;;;;;;;;;;;;;;;22.51;55.58;101389.66;5062112;28;3104;-66
2022/11/03 07:33:08;;;;;;;;;;;;;;;22.57;55.42;101392.84;5058665;28;3130;-66
2022/11/03 07:35:39;;;;;;;;;;;;;;;22.49;55.36;101398.22;5054884;28;2986;-70
2022/11/03 07:38:26;;;;;;;;;;;;;;;22.33;55.10;101394.59;5053263;28;3167;-70
2022/11/03 07:40:52;;;;;;;;;;;;;;;22.45;54.65;101398.06;5063471;28;2974;-68
2022/11/03 07:43:21;;;;;;;;;;;;;;;22.32;54.14;101390.22;5058834;28;3018;-67
2022/11/03 07:45:51;;;;;;;;;;;;;;;22.22;53.51;101393.38;5063602;28;3048;-67
2022/11/03 07:48:24;;;;;;;;;;;;;;;21.74;53.95;101381.72;5060923;28;2877;-59
2022/11/03 07:50:51;;;;;;;;;;;;;;;21.69;54.67;101368.50;5061083;28;2897;-61
2022/11/03 07:53:23;;;;;;;;;;;;;;;21.74;54.94;101364.41;5066157;28;3244;-60
2022/11/03 07:55:52;;;;;;;;;;;;;;;21.62;55.90;101369.56;5060769;28;2590;-59
2022/11/03 07:58:19;;;;;;;;;;;;;;;21.80;54.64;101354.56;5062329;28;3185;-59
2022/11/03 08:00:46;;;;;;;;;;;;;;;21.49;54.90;101355.97;5058416;28;3509;-58
2022/11/03 08:03:18;;;;;;;;;;;;;;;21.27;54.85;101352.69;5055535;28;2987;-57
2022/11/03 08:05:44;;;;;;;;;;;;;;;20.88;51.98;101354.31;5053159;28;3314;-58
2022/11/03 08:08:10;;;;;;;;;;;;;;;21.21;51.93;101353.13;5054416;28;2911;-60
2022/11/03 08:10:37;;;;;;;;;;;;;;;21.43;53.65;101342.00;5065107;28;3269;-57
2022/11/03 08:13:03;;;;;;;;;;;;;;;21.49;53.35;101339.41;5071347;28;2913;-57
2022/11/03 08:15:30;;;;;;;;;;;;;;;21.50;53.99;101340.16;5063072;28;3275;-54
2022/11/03 08:17:56;;;;;;;;;;;;;;;21.50;54.63;101334.41;5076494;28;2949;-53
2022/11/03 08:20:22;;;;;;;;;;;;;;;21.49;55.32;101333.66;5080302;28;1587;-54
2022/11/03 08:22:49;;;;;;;;;;;;;;;21.50;55.71;101325.75;5068826;28;2767;-53
2022/11/03 08:25:35;;;;;;;;;;;;;;;21.51;55.52;101324.38;5059485;28;2759;-52
2022/11/03 08:28:02;;;;;;;;;;;;;;;21.49;55.75;101327.16;5060656;28;3014;-54
2022/11/03 08:30:29;;;;;;;;;;;;;;;21.48;55.48;101319.88;5065172;28;2747;-53
2022/11/03 08:32:55;;;;;;;;;;;;;;;21.47;55.95;101319.16;5064377;28;2915;-53
2022/11/03 08:35:22;;;;;;;;;;;;;;;21.46;55.86;101311.91;5055800;28;2799;-52
2022/11/03 08:37:48;;;;;;;;;;;;;;;21.48;55.86;101314.13;5065551;28;3012;-50
2022/11/03 08:40:14;;;;;;;;;;;;;;;21.48;55.81;101305.47;5061853;28;2322;-54
2022/11/03 08:42:41;;;;;;;;;;;;;;;21.48;55.57;101300.47;5058619;28;2901;-52
2022/11/03 08:45:07;;;;;;;;;;;;;;;21.48;55.93;101302.59;5057020;28;2741;-56
2022/11/03 08:47:33;;;;;;;;;;;;;;;21.47;56.17;101295.38;5068284;28;2998;-53
2022/11/03 08:50:00;;;;;;;;;;;;;;;21.47;55.78;101289.59;5066533;28;2601;-52
2022/11/03 08:52:27;;;;;;;;;;;;;;;21.46;56.01;101285.97;5070967;28;3100;-54
2022/11/03 08:54:53;;;;;;;;;;;;;;;21.48;56.50;101285.31;5064500;28;1952;-54
2022/11/03 08:57:20;;;;;;;;;;;;;;;21.47;56.87;101281.69;5066169;28;2859;-55
2022/11/03 08:59:46;;;;;;;;;;;;;;;21.47;57.23;101295.38;5059522;28;2871;-55
2022/11/03 09:02:12;;;;;;;;;;;;;;;21.46;57.53;101277.34;5055923;28;2856;-53
2022/11/03 09:04:39;;;;;;;;;;;;;;;21.43;57.02;101275.72;5048066;28;2994;-56
2022/11/03 09:07:05;;;;;;;;;;;;;;;21.36;56.59;101273.19;5058765;28;2792;-57
2022/11/03 09:09:31;;;;;;;;;;;;;;;21.30;55.21;101259.22;5041043;28;4132;-58
2022/11/03 09:12:20;;;;;;;;;;;;;;;21.62;54.78;101259.31;5044545;28;3143;-59
2022/11/03 09:14:47;;;;;;;;;;;;;;;21.63;55.53;101257.94;5055328;28;2938;-59
2022/11/03 09:17:13;;;;;;;;;;;;;;;21.67;55.94;101247.34;5058178;28;3044;-56
2022/11/03 09:19:39;;;;;;;;;;;;;;;21.60;55.66;101242.69;5047992;28;3183;-59
2022/11/03 09:22:06;;;;;;;;;;;;;;;21.56;56.08;101244.63;5056459;28;3029;-59
2022/11/03 09:24:32;;;;;;;;;;;;;;;21.57;57.02;101238.22;5046407;28;2971;-62
2022/11/03 09:26:58;;;;;;;;;;;;;;;21.25;54.21;101238.09;5051687;28;3033;-59
2022/11/03 09:29:27;;;;;;;;;;;;;;;21.29;54.10;101235.44;5045025;28;2917;-59
2022/11/03 09:32:05;;;;;;;;;;;;;;;21.37;55.82;101235.06;5052786;28;2895;-59
2022/11/03 09:34:32;;;;;;;;;;;;;;;21.45;56.00;101229.00;5052364;28;2919;-59
2022/11/03 09:36:58;;;;;;;;;;;;;;;21.46;56.00;101230.47;5057854;28;2836;-59
2022/11/03 09:39:24;;;;;;;;;;;;;;;21.46;56.89;101237.00;5053697;28;2814;-59
2022/11/03 09:41:51;;;;;;;;;;;;;;;21.48;56.97;101227.69;5052397;28;2875;-59
2022/11/03 09:44:24;;;;;;;;;;;;;;;21.38;56.80;101224.31;5053318;28;2876;-59
2022/11/03 09:46:50;;;;;;;;;;;;;;;20.96;54.73;101220.81;5049228;28;2880;-60
2022/11/03 09:49:23;;;;;;;;;;;;;;;21.09;53.67;101217.91;5050595;28;3006;-59
2022/11/03 09:51:49;;;;;;;;;;;;;;;21.28;53.83;101210.91;5052104;28;3166;-59
2022/11/03 09:54:16;;;;;;;;;;;;;;;21.38;54.19;101204.13;5053136;28;2894;-60
2022/11/03 09:56:43;;;;;;;;;;;;;;;21.21;54.69;101194.72;5038868;28;2847;-60
2022/11/03 09:59:12;;;;;;;;;;;;;;;21.16;54.17;101198.03;5047474;28;2918;-61
2022/11/03 10:01:38;;;;;;;;;;;;;;;21.06;52.86;101195.41;5057919;28;2860;-62
2022/11/03 10:04:05;;;;;;;;;;;;;;;20.49;47.31;101181.78;5059795;28;3021;-59
2022/11/03 10:06:31;;;;;;;;;;;;;;;20.38;46.85;101183.38;5061001;28;2873;-60
2022/11/03 10:08:57;;;;;;;;;;;;;;;20.81;49.99;101187.72;5051583;28;2914;-59
2022/11/03 10:11:24;;;;;;;;;;;;;;;21.06;50.66;101178.88;5052431;28;3135;-60
2022/11/03 10:13:52;;;;;;;;;;;;;;;21.25;52.46;101176.88;5048509;28;3207;-61
2022/11/03 10:16:19;;;;;;;;;;;;;;;21.34;52.96;101162.22;5045435;28;2965;-58
2022/11/03 10:18:45;;;;;;;;;;;;;;;21.34;53.77;101167.97;5059916;28;2893;-58
2022/11/03 10:21:15;;;;;;;;;;;;;;;21.36;53.84;101160.84;5058633;28;2930;-58
2022/11/03 10:23:43;;;;;;;;;;;;;;;21.36;54.29;101152.94;5059891;28;2919;-58
2022/11/03 10:26:10;;;;;;;;;;;;;;;21.36;54.63;101157.94;5047843;28;3273;-58
2022/11/03 10:28:37;;;;;;;;;;;;;;;21.33;54.98;101152.09;5056357;28;2877;-59
2022/11/03 10:31:08;;;;;;;;;;;;;;;21.37;55.33;101147.91;5054983;28;2816;-57
2022/11/03 10:33:39;;;;;;;;;;;;;;;21.36;54.95;101149.31;5059247;28;2831;-55
2022/11/03 10:36:14;;;;;;;;;;;;;;;21.34;55.54;101133.41;5057790;28;2851;-58
2022/11/03 10:38:42;;;;;;;;;;;;;;;21.37;55.67;101124.84;5056381;28;2994;-56
2022/11/03 10:41:11;;;;;;;;;;;;;;;21.34;55.93;101127.63;5063371;28;2740;-58
2022/11/03 10:43:38;;;;;;;;;;;;;;;21.38;56.12;101123.47;5052887;28;3073;-58
2022/11/03 10:46:08;;;;;;;;;;;;;;;21.38;56.00;101132.13;5052361;28;2802;-58
2022/11/03 10:49:01;;;;;;;;;;;;;;;21.42;56.03;101123.69;5052053;28;3154;-53
2022/11/03 10:51:28;;;;;;;;;;;;;;;21.48;56.27;101112.44;5052600;28;2867;-59
2022/11/03 10:53:54;;;;;;;;;;;;;;;21.56;56.16;101112.81;5057995;28;3021;-58
2022/11/03 10:56:21;;;;;;;;;;;;;;;21.52;56.53;101103.97;5050373;28;3123;-59
2022/11/03 10:58:47;;;;;;;;;;;;;;;21.46;56.68;101104.47;5050624;28;3178;-51
2022/11/03 11:01:13;;;;;;;;;;;;;;;21.46;56.61;101097.94;5046034;28;2999;-62
2022/11/03 11:03:40;;;;;;;;;;;;;;;21.44;56.81;101098.59;5058172;28;2809;-60
2022/11/03 11:06:20;;;;;;;;;;;;;;;21.47;56.38;101093.69;5051083;28;3223;-62
2022/11/03 11:08:47;;;;;;;;;;;;;;;21.49;56.72;101090.88;5048680;28;2895;-61
2022/11/03 11:11:16;;;;;;;;;;;;;;;21.21;52.08;101078.75;5056980;28;3014;-60
2022/11/03 11:13:42;;;;;;;;;;;;;;;21.21;51.85;101078.75;5040707;28;4332;-61
2022/11/03 11:16:35;;;;;;;;;;;;;;;21.34;51.73;101075.78;5058663;28;2985;-59
2022/11/03 11:19:01;;;;;;;;;;;;;;;21.31;51.71;101074.22;5059591;28;2875;-59
2022/11/03 11:21:27;;;;;;;;;;;;;;;20.68;48.02;101065.50;5059939;28;3114;-59
2022/11/03 11:23:59;;;;;;;;;;;;;;;20.71;47.34;101064.22;5058094;28;2917;-59
2022/11/03 11:26:32;;;;;;;;;;;;;;;20.91;48.16;101062.31;5058840;28;3073;-59
2022/11/03 11:29:07;;;;;;;;;;;;;;;21.09;48.57;101050.88;5056608;28;3204;-59
2022/11/03 11:31:37;;;;;;;;;;;;;;;21.15;49.40;101043.94;5065151;28;2899;-59
2022/11/03 11:34:11;;;;;;;;;;;;;;;21.18;50.58;101052.00;5069497;28;2740;-61
2022/11/03 11:36:38;;;;;;;;;;;;;;;21.19;51.06;101047.75;5065762;28;2987;-59
2022/11/03 11:39:11;;;;;;;;;;;;;;;21.18;52.95;101045.50;5061313;28;3033;-67
2022/11/03 11:41:56;;;;;;;;;;;;;;;20.69;49.28;101033.22;5063085;28;3282;-60
2022/11/03 11:44:37;;;;;;;;;;;;;;;20.89;50.93;101036.31;5063070;28;3340;-60
2022/11/03 11:47:20;;;;;;;;;;;;;;;20.99;51.01;101041.06;5059637;28;2980;-59
2022/11/03 11:49:47;;;;;;;;;;;;;;;20.95;51.70;101023.59;5066180;28;2643;-58
2022/11/03 11:52:13;;;;;;;;;;;;;;;20.82;50.50;101025.91;5055426;28;3125;-54
2022/11/03 11:54:44;;;;;;;;;;;;;;;20.83;49.32;101012.25;5056769;28;2816;-58
2022/11/03 11:57:17;;;;;;;;;;;;;;;20.88;48.67;101014.66;5058316;28;3005;-61
2022/11/03 11:59:44;;;;;;;;;;;;;;;20.80;48.66;100999.13;5069061;28;2964;-51
2022/11/03 12:02:15;;;;;;;;;;;;;;;20.89;49.30;100998.13;5053486;28;2829;-60
2022/11/03 12:04:44;;;;;;;;;;;;;;;20.82;48.40;100997.13;5051990;28;2977;-62
2022/11/03 12:07:11;;;;;;;;;;;;;;;20.48;46.38;100996.22;5064842;28;3124;-55
2022/11/03 12:09:39;;;;;;;;;;;;;;;20.18;45.97;100992.56;5063380;28;3018;-54
2022/11/03 12:12:05;;;;;;;;;;;;;;;20.42;46.41;100979.38;5065499;28;2904;-61
2022/11/03 12:14:34;;;;;;;;;;;;;;;20.74;46.62;100982.34;5061980;28;2942;-60
2022/11/03 12:17:13;;;;;;;;;;;;;;;20.89;47.19;100987.38;5062142;28;3093;-59
2022/11/03 12:19:43;;;;;;;;;;;;;;;20.96;47.22;100979.00;5063452;28;2781;-59
2022/11/03 12:22:10;;;;;;;;;;;;;;;20.92;47.59;100980.31;5069580;28;2683;-59
2022/11/03 12:24:38;;;;;;;;;;;;;;;20.96;47.72;100976.13;5061761;28;2953;-59
2022/11/03 12:27:24;;;;;;;;;;;;;;;20.92;47.84;100968.78;5066696;28;2779;-59
2022/11/03 12:29:54;;;;;;;;;;;;;;;20.95;48.69;100972.50;5046907;28;2938;-52
2022/11/03 12:32:21;;;;;;;;;;;;;;;21.01;50.58;100966.28;5052562;28;2959;-61
2022/11/03 12:35:03;;;;;;;;;;;;;;;21.02;51.40;100964.91;5053408;28;2872;-67
2022/11/03 12:37:29;;;;;;;;;;;;;;;20.78;47.96;100958.78;5067027;28;2998;-72
2022/11/03 12:39:55;;;;;;;;;;;;;;;20.53;47.58;100963.34;5059009;28;2949;-61
2022/11/03 12:42:23;;;;;;;;;;;;;;;20.51;47.25;100958.25;5056559;28;2936;-60
2022/11/03 12:44:50;;;;;;;;;;;;;;;20.69;47.43;100949.03;5058703;28;2748;-61
2022/11/03 12:47:17;;;;;;;;;;;;;;;20.80;47.41;100950.22;5070730;28;1668;-60
2022/11/03 12:49:43;;;;;;;;;;;;;;;20.85;48.01;100952.63;5075195;28;1797;-60
2022/11/03 12:52:10;;;;;;;;;;;;;;;20.89;48.74;100949.97;5072860;28;1910;-60
2022/11/03 12:54:36;;;;;;;;;;;;;;;20.96;49.17;100944.44;5072211;28;1555;-61
2022/11/03 12:57:02;;;;;;;;;;;;;;;21.00;50.84;100933.13;5075242;28;1662;-61
2022/11/03 12:59:29;;;;;;;;;;;;;;;21.01;52.96;100923.13;5073080;28;1647;-61
2022/11/03 13:01:55;;;;;;;;;;;;;;;21.04;53.18;100918.91;5069467;28;1592;-61
2022/11/03 13:04:22;;;;;;;;;;;;;;;21.06;53.18;100911.13;5074674;28;1754;-61
2022/11/03 13:06:48;;;;;;;;;;;;;;;21.06;53.48;100908.22;5072100;28;1664;-61
2022/11/03 13:09:14;;;;;;;;;;;;;;;21.06;53.71;100913.25;5074992;28;1698;-61
2022/11/03 13:14:26;;;;;;;;;;;;;;;21.11;54.05;100914.91;5069179;28;1556;-61